Time;durP1;ratioP1;P1;durP2;ratioP2;P2;SDS_P1;SDS_P2;PMS_P1;PMS_P2;Temp;Humidity;BMP_temperature;BMP_pressure;BME280_temperature;BME280_humidity;BME280_pressure;Samples;Min_cycle;Max_cycle;Signal;HPM_P1;HPM_P2
2023/01/21 00:00:43;;;;;;;31.90;17.75;;;-0.60;99.90;;;;;;4930546;29;20058;-81
2023/01/21 00:03:11;;;;;;;30.70;18.55;;;-0.60;99.90;;;;;;4928758;29;20043;-62
2023/01/21 00:05:37;;;;;;;27.42;17.92;;;-0.60;99.90;;;;;;4921814;29;20470;-62
2023/01/21 00:08:03;;;;;;;27.83;17.15;;;-0.60;99.90;;;;;;4929547;29;20095;-62
2023/01/21 00:10:29;;;;;;;29.38;18.10;;;-0.70;99.90;;;;;;4929600;29;20059;-62
2023/01/21 00:12:55;;;;;;;31.10;17.33;;;-0.70;99.90;;;;;;4912953;29;20550;-62
2023/01/21 00:15:20;;;;;;;26.00;16.30;;;-0.70;99.90;;;;;;4928915;29;20146;-63
2023/01/21 00:17:46;;;;;;;31.70;17.33;;;-0.70;99.90;;;;;;4928743;29;20549;-63
2023/01/21 00:20:12;;;;;;;29.80;16.83;;;-0.70;99.90;;;;;;4929151;29;20126;-63
2023/01/21 00:22:38;;;;;;;27.33;15.75;;;-0.70;99.90;;;;;;4929856;29;20103;-62
2023/01/21 00:25:04;;;;;;;28.17;16.40;;;-0.70;99.90;;;;;;4912328;29;20563;-62
2023/01/21 00:27:30;;;;;;;31.50;17.92;;;-0.80;99.90;;;;;;4911672;29;20055;-63
2023/01/21 00:29:56;;;;;;;29.40;16.42;;;-0.80;99.90;;;;;;4931201;29;20043;-62
2023/01/21 00:32:22;;;;;;;35.75;17.05;;;-0.70;99.90;;;;;;4932680;29;20043;-62
2023/01/21 00:34:47;;;;;;;27.58;17.13;;;-0.80;99.90;;;;;;4933536;29;20059;-62
2023/01/21 00:37:13;;;;;;;29.13;16.42;;;-0.80;99.90;;;;;;4932490;29;20047;-63
2023/01/21 00:39:41;;;;;;;33.83;17.73;;;-0.80;99.90;;;;;;4932997;29;20047;-62
2023/01/21 00:42:11;;;;;;;32.72;18.27;;;-0.90;99.90;;;;;;4932745;29;20051;-62
2023/01/21 00:44:37;;;;;;;29.17;16.80;;;-0.90;99.90;;;;;;4932654;29;20087;-62
2023/01/21 00:47:04;;;;;;;34.92;17.55;;;-0.80;99.90;;;;;;4933262;29;20048;-78
2023/01/21 00:49:30;;;;;;;33.05;15.77;;;-0.80;99.90;;;;;;4932298;29;20115;-63
2023/01/21 00:51:56;;;;;;;25.98;15.85;;;-0.90;99.90;;;;;;4932856;29;20126;-63
2023/01/21 00:54:22;;;;;;;32.95;16.20;;;-0.90;99.90;;;;;;4932858;29;20044;-62
2023/01/21 00:56:48;;;;;;;28.13;15.90;;;-1.00;99.90;;;;;;4932901;29;20126;-62
2023/01/21 00:59:14;;;;;;;27.33;15.25;;;-1.00;99.90;;;;;;4932171;29;20043;-62
2023/01/21 01:01:41;;;;;;;26.70;13.95;;;-1.10;99.90;;;;;;4930474;29;20086;-62
2023/01/21 01:04:07;;;;;;;28.63;15.82;;;-1.10;99.90;;;;;;4932830;29;20525;-62
2023/01/21 01:06:33;;;;;;;27.98;15.68;;;-1.20;99.90;;;;;;4932416;29;20401;-63
2023/01/21 01:08:59;;;;;;;29.27;16.17;;;-1.20;99.90;;;;;;4932537;29;20051;-62
2023/01/21 01:11:26;;;;;;;28.40;16.35;;;-1.30;99.90;;;;;;4932232;29;20119;-63
2023/01/21 01:13:56;;;;;;;31.27;16.48;;;-1.30;99.90;;;;;;4932825;29;20044;-63
2023/01/21 01:16:22;;;;;;;29.23;16.10;;;-1.30;99.90;;;;;;4932047;29;20066;-62
2023/01/21 01:18:48;;;;;;;27.05;16.38;;;-1.30;99.90;;;;;;4915584;29;20052;-63
2023/01/21 01:21:16;;;;;;;29.92;16.85;;;-1.40;99.90;;;;;;4931907;29;20445;-63
2023/01/21 01:23:43;;;;;;;25.55;16.63;;;-1.40;99.90;;;;;;4932120;29;20044;-63
2023/01/21 01:26:11;;;;;;;27.63;17.15;;;-1.40;99.90;;;;;;4932010;29;20060;-63
2023/01/21 01:28:38;;;;;;;28.55;16.83;;;-1.40;99.90;;;;;;4931960;29;20051;-62
2023/01/21 01:31:07;;;;;;;29.02;15.85;;;-1.30;99.90;;;;;;4932161;29;20095;-63
2023/01/21 01:33:33;;;;;;;38.30;17.02;;;-1.30;99.90;;;;;;4931241;29;20040;-63
2023/01/21 01:36:05;;;;;;;31.02;17.42;;;-1.30;99.90;;;;;;4932235;29;20145;-63
2023/01/21 01:38:30;;;;;;;30.25;16.67;;;-1.30;99.90;;;;;;4931636;29;20039;-63
2023/01/21 01:40:57;;;;;;;30.20;16.80;;;-1.30;99.90;;;;;;4931626;29;20048;-63
2023/01/21 01:43:26;;;;;;;32.97;17.10;;;-1.40;99.90;;;;;;4932183;29;20060;-63
2023/01/21 01:45:52;;;;;;;34.30;18.25;;;-1.30;99.90;;;;;;4914383;29;20047;-62
2023/01/21 01:48:28;;;;;;;36.20;18.10;;;-1.40;99.90;;;;;;4932068;29;20124;-62
2023/01/21 01:50:59;;;;;;;31.52;17.10;;;-1.40;99.90;;;;;;4930965;29;20079;-62
2023/01/21 01:53:27;;;;;;;28.88;17.10;;;-1.40;99.90;;;;;;4931962;29;20570;-62
2023/01/21 01:55:53;;;;;;;29.98;17.05;;;-1.40;99.90;;;;;;4913381;29;20445;-62
2023/01/21 01:58:21;;;;;;;28.45;16.88;;;-1.50;99.90;;;;;;4940872;29;20043;-62
2023/01/21 02:00:47;;;;;;;29.27;16.70;;;-1.50;99.90;;;;;;4931470;29;20569;-62
2023/01/21 02:06:00;;;;;;;29.40;16.38;;;-1.50;99.90;;;;;;4932056;29;20403;-63
2023/01/21 02:08:27;;;;;;;31.70;17.48;;;-1.60;99.90;;;;;;4931357;29;20055;-62
2023/01/21 02:10:55;;;;;;;33.92;17.30;;;-1.60;99.90;;;;;;4913375;29;20055;-62
2023/01/21 02:13:27;;;;;;;28.40;16.75;;;-1.60;99.90;;;;;;4931250;29;20521;-62
2023/01/21 02:16:02;;;;;;;30.10;17.63;;;-1.60;99.90;;;;;;4930938;29;20102;-62
2023/01/21 02:18:48;;;;;;;32.25;17.05;;;-1.60;99.90;;;;;;4931515;29;20052;-62
2023/01/21 02:21:35;;;;;;;35.90;17.98;;;-1.60;99.90;;;;;;4923566;29;20102;-62
2023/01/21 02:24:21;;;;;;;31.63;17.02;;;-1.60;99.90;;;;;;4931357;29;20391;-62
2023/01/21 02:26:47;;;;;;;29.35;16.30;;;-1.50;99.90;;;;;;4930700;29;20126;-62
2023/01/21 02:29:27;;;;;;;34.25;17.85;;;-1.50;99.90;;;;;;4931301;29;20131;-62
2023/01/21 02:32:21;;;;;;;33.28;18.38;;;-1.50;99.90;;;;;;4918711;29;20086;-62
2023/01/21 02:34:49;;;;;;;35.47;18.05;;;-1.50;99.90;;;;;;4930278;29;20569;-62
2023/01/21 02:37:58;;;;;;;34.05;17.80;;;-1.50;99.90;;;;;;4913573;29;20055;-62
2023/01/21 02:40:36;;;;;;;31.38;17.83;;;-1.50;99.90;;;;;;4931432;29;20060;-62
2023/01/21 02:43:34;;;;;;;28.13;16.20;;;-1.50;99.90;;;;;;4930287;29;20075;-62
2023/01/21 02:46:14;;;;;;;34.92;15.50;;;-1.40;99.90;;;;;;4931366;29;20063;-62
2023/01/21 02:48:59;;;;;;;37.97;16.67;;;-1.40;99.90;;;;;;4931445;29;20405;-62
2023/01/21 02:51:26;;;;;;;28.40;16.17;;;-1.30;99.90;;;;;;4930492;29;20048;-62
2023/01/21 02:53:52;;;;;;;37.72;16.17;;;-1.40;99.90;;;;;;4929600;29;20047;-63
2023/01/21 02:56:22;;;;;;;30.35;15.63;;;-1.40;99.90;;;;;;4930111;29;20497;-62
2023/01/21 02:59:00;;;;;;;29.20;14.88;;;-1.30;99.90;;;;;;4930517;29;20159;-62
2023/01/21 03:01:42;;;;;;;34.85;17.33;;;-1.30;99.90;;;;;;4930732;29;20052;-62
2023/01/21 03:04:40;;;;;;;31.40;17.13;;;-1.20;99.90;;;;;;4930182;29;20122;-63
2023/01/21 03:07:09;;;;;;;41.75;18.35;;;-1.20;99.90;;;;;;4929833;29;20471;-62
2023/01/21 03:09:36;;;;;;;35.00;17.83;;;-1.10;99.90;;;;;;4930543;29;20055;-62
2023/01/21 03:12:17;;;;;;;34.33;16.80;;;-1.10;99.90;;;;;;4930329;29;20050;-62
2023/01/21 03:17:52;;;;;;;32.25;17.70;;;-1.10;99.90;;;;;;4929644;29;20051;-62
2023/01/21 03:20:36;;;;;;;40.22;19.70;;;-1.00;99.90;;;;;;4930281;29;20052;-62
2023/01/21 03:23:09;;;;;;;34.35;17.95;;;-1.00;99.90;;;;;;4929256;29;20043;-63
2023/01/21 03:25:36;;;;;;;38.45;18.80;;;-0.90;99.90;;;;;;4930381;29;20123;-62
2023/01/21 03:28:08;;;;;;;44.92;18.88;;;-0.90;99.90;;;;;;4930342;29;20039;-62
2023/01/21 03:30:36;;;;;;;43.53;19.27;;;-0.80;99.90;;;;;;4929318;29;20041;-62
2023/01/21 03:33:02;;;;;;;38.22;18.83;;;-0.80;99.90;;;;;;4930173;29;20048;-63
2023/01/21 03:35:37;;;;;;;41.35;19.90;;;-0.70;99.90;;;;;;4929775;29;20406;-62
2023/01/21 03:38:15;;;;;;;42.95;19.67;;;-0.80;99.90;;;;;;4929414;29;20502;-62
2023/01/21 03:40:55;;;;;;;39.78;19.63;;;-0.80;99.90;;;;;;4929644;29;20458;-62
2023/01/21 03:43:21;;;;;;;45.72;20.98;;;-0.70;99.90;;;;;;4911397;29;20620;-62
2023/01/21 03:46:06;;;;;;;45.58;20.08;;;-0.70;99.90;;;;;;4930297;29;20388;-63
2023/01/21 03:49:00;;;;;;;49.33;21.38;;;-0.70;99.90;;;;;;4929585;29;20044;-62
2023/01/21 03:51:36;;;;;;;54.03;21.23;;;-0.60;99.90;;;;;;4897473;29;20106;-62
2023/01/21 03:54:02;;;;;;;41.92;19.92;;;-0.60;99.90;;;;;;4928661;29;20683;-63
2023/01/21 03:56:28;;;;;;;51.08;22.70;;;-0.50;99.90;;;;;;4927586;29;20047;-63
2023/01/21 03:58:54;;;;;;;51.38;20.77;;;-0.50;99.90;;;;;;4923297;29;20051;-63
2023/01/21 04:01:20;;;;;;;59.85;23.05;;;-0.40;99.90;;;;;;4929550;29;20055;-62
2023/01/21 04:03:46;;;;;;;50.55;21.23;;;-0.40;99.90;;;;;;4928615;29;20051;-63
2023/01/21 04:06:17;;;;;;;56.70;22.35;;;-0.40;99.90;;;;;;4929326;29;20064;-63
2023/01/21 04:08:43;;;;;;;57.63;22.02;;;-0.40;99.90;;;;;;4929207;29;20062;-62
2023/01/21 04:11:09;;;;;;;56.50;21.60;;;-0.40;99.90;;;;;;4929602;29;20043;-62
2023/01/21 04:13:35;;;;;;;47.42;21.40;;;-0.50;99.90;;;;;;4911481;29;20063;-63
2023/01/21 04:16:01;;;;;;;59.80;24.63;;;-0.50;99.90;;;;;;4929447;29;20036;-62
2023/01/21 04:18:26;;;;;;;55.83;22.98;;;-0.50;99.90;;;;;;4929192;29;20498;-63
2023/01/21 04:20:52;;;;;;;62.08;23.02;;;-0.50;99.90;;;;;;4896876;29;20047;-63
2023/01/21 04:23:18;;;;;;;58.67;22.70;;;-0.50;99.90;;;;;;4911836;29;20086;-62
2023/01/21 04:25:47;;;;;;;57.22;23.33;;;-0.60;99.90;;;;;;4931416;29;20043;-62
2023/01/21 04:28:12;;;;;;;61.08;23.90;;;-0.60;99.90;;;;;;4915778;29;20127;-62
2023/01/21 04:30:39;;;;;;;50.40;22.30;;;-0.60;99.90;;;;;;4912513;29;20135;-62
2023/01/21 04:33:04;;;;;;;53.45;23.48;;;-0.60;99.90;;;;;;4911966;29;20079;-63
2023/01/21 04:35:30;;;;;;;50.75;22.23;;;-0.50;99.90;;;;;;4929071;29;20094;-63
2023/01/21 04:37:56;;;;;;;63.65;24.95;;;-0.50;99.90;;;;;;4929058;29;20118;-63
2023/01/21 04:40:22;;;;;;;48.72;22.10;;;-0.50;99.90;;;;;;4928915;29;20135;-63
2023/01/21 04:42:48;;;;;;;55.33;22.77;;;-0.50;99.90;;;;;;4922363;29;20119;-62
2023/01/21 04:45:15;;;;;;;50.70;22.27;;;-0.40;99.90;;;;;;4914710;29;20048;-63
2023/01/21 04:47:42;;;;;;;50.53;21.02;;;-0.40;99.90;;;;;;4929115;29;20036;-62
2023/01/21 04:50:09;;;;;;;47.33;21.67;;;-0.50;99.90;;;;;;4929079;29;20055;-62
2023/01/21 04:52:35;;;;;;;57.70;22.23;;;-0.50;99.90;;;;;;4928456;29;20518;-63
2023/01/21 04:55:00;;;;;;;50.30;22.15;;;-0.50;99.90;;;;;;4929016;29;20118;-62
2023/01/21 04:57:26;;;;;;;57.08;20.88;;;-0.50;99.90;;;;;;4916066;29;20441;-63
2023/01/21 04:59:53;;;;;;;58.42;23.27;;;-0.50;99.90;;;;;;4934371;29;20051;-62
2023/01/21 05:02:19;;;;;;;46.92;20.90;;;-0.40;99.90;;;;;;4933129;29;20044;-63
2023/01/21 05:04:44;;;;;;;43.60;19.98;;;-0.50;99.90;;;;;;4920938;29;20052;-62
2023/01/21 05:07:10;;;;;;;55.08;22.92;;;-0.50;99.90;;;;;;4928372;29;20079;-63
2023/01/21 05:09:36;;;;;;;47.20;19.60;;;-0.40;99.90;;;;;;4929060;29;20550;-63
2023/01/21 05:12:03;;;;;;;48.55;20.25;;;-0.40;99.90;;;;;;4912361;29;20577;-63
2023/01/21 05:14:29;;;;;;;45.10;21.67;;;-0.40;99.90;;;;;;4929023;29;20110;-63
2023/01/21 05:16:54;;;;;;;49.95;20.65;;;-0.40;99.90;;;;;;4932420;29;20055;-63
2023/01/21 05:19:20;;;;;;;52.00;21.25;;;-0.50;99.90;;;;;;4931306;29;20062;-63
2023/01/21 05:21:46;;;;;;;50.00;21.10;;;-0.60;99.90;;;;;;4932631;29;20432;-62
2023/01/21 05:24:12;;;;;;;40.25;19.33;;;-0.60;99.90;;;;;;4931846;29;20047;-62
2023/01/21 05:26:38;;;;;;;40.38;19.52;;;-0.70;99.90;;;;;;4932305;29;20098;-62
2023/01/21 05:29:03;;;;;;;43.33;20.75;;;-0.70;99.90;;;;;;4914890;29;20498;-62
2023/01/21 05:31:29;;;;;;;40.22;21.30;;;-0.80;99.90;;;;;;4931419;29;20051;-62
2023/01/21 05:33:56;;;;;;;49.15;22.88;;;-0.80;99.90;;;;;;4932844;29;20043;-63
2023/01/21 05:36:23;;;;;;;38.75;20.02;;;-0.80;99.90;;;;;;4931059;29;20080;-63
2023/01/21 05:38:49;;;;;;;43.80;20.80;;;-0.80;99.90;;;;;;4932560;29;20052;-63
2023/01/21 05:41:14;;;;;;;43.25;19.52;;;-0.70;99.90;;;;;;4930952;29;20048;-81
2023/01/21 05:43:41;;;;;;;41.13;21.15;;;-0.70;99.90;;;;;;4932240;29;20063;-63
2023/01/21 05:46:06;;;;;;;42.53;19.63;;;-0.70;99.90;;;;;;4883662;29;20040;-63
2023/01/21 05:48:32;;;;;;;56.75;23.15;;;-0.70;99.90;;;;;;4931495;29;20040;-62
2023/01/21 05:50:58;;;;;;;49.38;22.33;;;-0.60;99.90;;;;;;4931729;29;20059;-63
2023/01/21 05:53:24;;;;;;;56.47;23.90;;;-0.60;99.90;;;;;;4930973;29;20050;-73
2023/01/21 05:55:52;;;;;;;62.97;22.77;;;-0.60;99.90;;;;;;4932446;29;20078;-63
2023/01/21 05:58:19;;;;;;;53.08;22.67;;;-0.50;99.90;;;;;;4931208;29;20044;-62
2023/01/21 06:00:47;;;;;;;44.90;21.98;;;-0.50;99.90;;;;;;4914940;29;20490;-63
2023/01/21 06:03:13;;;;;;;49.30;22.33;;;-0.50;99.90;;;;;;4931067;29;20052;-63
2023/01/21 06:05:40;;;;;;;45.95;21.58;;;-0.50;99.90;;;;;;4931497;29;20122;-62
2023/01/21 06:08:06;;;;;;;54.15;22.08;;;-0.60;99.90;;;;;;4898608;29;20052;-63
2023/01/21 06:10:32;;;;;;;48.30;21.15;;;-0.60;99.90;;;;;;4930587;29;20039;-63
2023/01/21 06:12:58;;;;;;;43.97;21.92;;;-0.60;99.90;;;;;;4931900;29;20867;-81
2023/01/21 06:15:24;;;;;;;46.75;20.13;;;-0.70;99.90;;;;;;4930852;29;20526;-62
2023/01/21 06:17:51;;;;;;;49.10;22.48;;;-0.70;99.90;;;;;;4931947;29;20042;-62
2023/01/21 06:20:17;;;;;;;40.33;20.88;;;-0.80;99.90;;;;;;4930881;29;20047;-63
2023/01/21 06:22:43;;;;;;;33.85;19.55;;;-0.80;99.90;;;;;;4931233;29;20398;-62
2023/01/21 06:25:09;;;;;;;42.13;21.08;;;-0.80;99.90;;;;;;4931289;29;20047;-62
2023/01/21 06:27:37;;;;;;;38.78;20.13;;;-0.80;99.90;;;;;;4912549;29;20043;-62
2023/01/21 06:30:10;;;;;;;46.63;20.75;;;-0.90;99.90;;;;;;4931548;29;20043;-63
2023/01/21 06:32:36;;;;;;;47.65;22.45;;;-0.90;99.90;;;;;;4929593;29;20126;-63
2023/01/21 06:35:03;;;;;;;46.50;21.80;;;-0.90;99.90;;;;;;4931339;29;20123;-62
2023/01/21 06:37:30;;;;;;;39.13;19.60;;;-1.00;99.90;;;;;;4930559;29;20620;-62
2023/01/21 06:39:56;;;;;;;38.28;19.75;;;-1.00;99.90;;;;;;4930157;29;20590;-62
2023/01/21 06:42:21;;;;;;;43.63;20.95;;;-1.10;99.90;;;;;;4930657;29;20064;-62
2023/01/21 06:44:47;;;;;;;40.45;20.58;;;-1.10;99.90;;;;;;4930527;29;20542;-62
2023/01/21 06:47:13;;;;;;;46.90;19.75;;;-1.10;99.90;;;;;;4930990;29;20091;-63
2023/01/21 06:49:39;;;;;;;34.20;19.02;;;-1.20;99.90;;;;;;4929842;29;20062;-62
2023/01/21 06:52:05;;;;;;;43.83;19.58;;;-1.20;99.90;;;;;;4931385;29;20397;-63
2023/01/21 06:54:31;;;;;;;45.38;20.65;;;-1.20;99.90;;;;;;4929715;29;20059;-62
2023/01/21 06:56:57;;;;;;;41.10;19.25;;;-1.10;99.90;;;;;;4930963;29;20043;-62
2023/01/21 06:59:23;;;;;;;45.28;21.48;;;-1.10;99.90;;;;;;4910939;29;20090;-63
2023/01/21 07:01:49;;;;;;;48.22;22.70;;;-1.10;99.90;;;;;;4930284;29;20086;-62
2023/01/21 07:04:15;;;;;;;45.08;22.00;;;-1.00;99.90;;;;;;4922591;29;21017;-63
2023/01/21 07:06:41;;;;;;;43.33;20.85;;;-1.00;99.90;;;;;;4929376;29;20051;-63
2023/01/21 07:09:07;;;;;;;38.80;19.52;;;-0.90;99.90;;;;;;4922570;29;20031;-62
2023/01/21 07:11:33;;;;;;;44.30;20.40;;;-0.90;99.90;;;;;;4912755;29;20048;-62
2023/01/21 07:13:59;;;;;;;44.22;19.35;;;-0.90;99.90;;;;;;4924580;29;20140;-63
2023/01/21 07:16:25;;;;;;;47.28;19.77;;;-1.00;99.90;;;;;;4929131;29;20047;-63
2023/01/21 07:18:51;;;;;;;40.08;18.27;;;-1.00;99.90;;;;;;4930507;29;20047;-63
2023/01/21 07:21:17;;;;;;;36.05;17.98;;;-1.10;99.90;;;;;;4930271;29;20044;-62
2023/01/21 07:23:43;;;;;;;40.47;19.05;;;-1.10;99.90;;;;;;4929785;29;20062;-63
2023/01/21 07:26:10;;;;;;;37.72;18.85;;;-1.10;99.90;;;;;;4921581;29;20089;-62
2023/01/21 07:28:36;;;;;;;47.95;22.25;;;-1.00;99.90;;;;;;4929732;29;20061;-63
2023/01/21 07:31:03;;;;;;;44.65;22.35;;;-1.00;99.90;;;;;;4930075;29;20466;-63
2023/01/21 07:33:29;;;;;;;58.05;22.65;;;-1.00;99.90;;;;;;4929192;29;20525;-62
2023/01/21 07:35:55;;;;;;;42.47;20.98;;;-1.10;99.90;;;;;;4929783;29;20039;-63
2023/01/21 07:38:21;;;;;;;38.10;19.77;;;-1.10;99.90;;;;;;4929890;29;20051;-63
2023/01/21 07:40:48;;;;;;;37.47;19.88;;;-1.10;99.90;;;;;;4912044;29;20102;-63
2023/01/21 07:43:15;;;;;;;33.33;17.80;;;-1.10;99.90;;;;;;4930075;29;20087;-63
2023/01/21 07:45:42;;;;;;;38.80;16.02;;;-1.00;99.90;;;;;;4918478;29;20087;-62
2023/01/21 07:48:08;;;;;;;33.97;16.83;;;-0.90;99.90;;;;;;4930401;29;20122;-62
2023/01/21 07:50:34;;;;;;;27.15;14.10;;;-0.80;99.90;;;;;;4929007;29;20040;-63
2023/01/21 07:53:00;;;;;;;27.45;14.40;;;-0.80;99.90;;;;;;4930561;29;20047;-63
2023/01/21 07:55:27;;;;;;;32.85;15.65;;;-0.70;99.90;;;;;;4929273;29;20451;-62
2023/01/21 07:57:55;;;;;;;28.27;14.20;;;-0.70;99.90;;;;;;4929714;29;20047;-63
2023/01/21 08:00:22;;;;;;;36.13;15.55;;;-0.70;99.90;;;;;;4913067;29;20410;-63
2023/01/21 08:02:52;;;;;;;35.42;14.80;;;-0.60;99.90;;;;;;4929106;29;20091;-65
2023/01/21 08:05:19;;;;;;;36.30;15.43;;;-0.60;99.90;;;;;;4926185;29;20222;-65
2023/01/21 08:07:44;;;;;;;40.95;16.30;;;-0.50;99.90;;;;;;4928201;29;20043;-66
2023/01/21 08:10:10;;;;;;;46.72;17.02;;;-0.40;99.90;;;;;;4911614;29;20450;-65
2023/01/21 08:12:36;;;;;;;51.25;19.13;;;-0.20;99.90;;;;;;4928584;29;20127;-65
2023/01/21 08:15:02;;;;;;;52.70;18.15;;;-0.10;99.90;;;;;;4929104;29;20077;-66
2023/01/21 08:17:28;;;;;;;51.78;17.67;;;0.10;99.90;;;;;;4912004;29;20094;-65
2023/01/21 08:19:54;;;;;;;62.00;19.75;;;0.20;99.90;;;;;;4929170;29;20043;-65
2023/01/21 08:22:19;;;;;;;56.53;19.60;;;0.30;99.90;;;;;;4920493;29;20054;-65
2023/01/21 08:24:46;;;;;;;50.15;19.25;;;0.40;99.90;;;;;;4907244;29;20052;-65
2023/01/21 08:27:11;;;;;;;53.60;18.95;;;0.50;99.90;;;;;;4926624;29;20055;-65
2023/01/21 08:29:37;;;;;;;69.22;20.60;;;0.60;99.90;;;;;;4928312;29;20380;-65
2023/01/21 08:32:03;;;;;;;64.47;18.52;;;0.60;99.90;;;;;;4929075;29;20379;-65
2023/01/21 08:34:29;;;;;;;58.47;18.98;;;0.70;99.90;;;;;;4929170;29;20134;-65
2023/01/21 08:36:54;;;;;;;61.40;17.95;;;0.80;99.90;;;;;;4909441;29;20130;-65
2023/01/21 08:39:20;;;;;;;66.75;18.42;;;0.70;99.90;;;;;;4933033;29;20035;-63
2023/01/21 08:41:46;;;;;;;52.72;17.00;;;0.80;99.90;;;;;;4926992;29;20482;-63
2023/01/21 08:44:12;;;;;;;59.30;18.27;;;0.80;99.90;;;;;;4918112;29;20067;-63
2023/01/21 08:46:37;;;;;;;67.85;19.77;;;0.90;99.90;;;;;;4928336;29;20046;-65
2023/01/21 08:49:04;;;;;;;67.15;21.02;;;1.00;99.90;;;;;;4927880;29;20398;-65
2023/01/21 08:51:29;;;;;;;59.97;21.33;;;1.10;99.90;;;;;;4927617;29;20052;-65
2023/01/21 08:53:55;;;;;;;76.72;23.33;;;1.20;99.90;;;;;;4927680;29;20068;-65
2023/01/21 08:56:21;;;;;;;79.60;22.90;;;1.30;99.90;;;;;;4913623;29;20422;-65
2023/01/21 08:58:47;;;;;;;75.45;22.88;;;1.40;99.90;;;;;;4931262;29;20498;-66
2023/01/21 09:01:14;;;;;;;82.43;24.50;;;1.50;99.90;;;;;;4932603;29;20043;-65
2023/01/21 09:03:40;;;;;;;78.60;25.25;;;1.60;99.90;;;;;;4929741;29;20537;-65
2023/01/21 09:06:07;;;;;;;90.10;25.67;;;1.70;99.90;;;;;;4931910;29;20044;-65
2023/01/21 09:08:35;;;;;;;84.68;25.23;;;1.70;99.90;;;;;;4931600;29;20039;-65
2023/01/21 09:11:02;;;;;;;86.95;26.15;;;1.70;99.90;;;;;;4916500;29;20502;-65
2023/01/21 09:13:31;;;;;;;100.10;27.85;;;1.70;99.90;;;;;;4931743;29;20060;-65
2023/01/21 09:15:57;;;;;;;85.85;25.08;;;1.70;99.90;;;;;;4931419;29;20553;-65
2023/01/21 09:18:22;;;;;;;83.40;25.92;;;1.60;99.90;;;;;;4932521;29;20071;-65
2023/01/21 09:20:48;;;;;;;85.07;25.08;;;1.60;99.90;;;;;;4931358;29;20056;-65
2023/01/21 09:23:23;;;;;;;65.55;22.83;;;1.50;99.90;;;;;;4931752;29;20044;-65
2023/01/21 09:26:03;;;;;;;72.38;24.55;;;1.40;99.90;;;;;;4912062;29;20051;-65
2023/01/21 09:28:29;;;;;;;64.28;21.83;;;1.40;99.90;;;;;;4926313;29;20063;-65
2023/01/21 09:30:57;;;;;;;62.72;22.42;;;1.40;99.90;;;;;;4931516;29;20040;-65
2023/01/21 09:33:23;;;;;;;66.05;21.55;;;1.40;99.90;;;;;;4930850;29;20123;-65
2023/01/21 09:36:01;;;;;;;58.97;21.45;;;1.40;99.90;;;;;;4930785;29;20593;-65
2023/01/21 09:38:28;;;;;;;55.67;20.77;;;1.40;99.90;;;;;;4925497;29;20472;-65
2023/01/21 09:40:57;;;;;;;49.95;20.38;;;1.50;99.90;;;;;;4931106;29;20079;-65
2023/01/21 09:43:33;;;;;;;62.97;21.90;;;1.50;99.90;;;;;;4930837;29;20399;-65
2023/01/21 09:46:01;;;;;;;65.18;21.40;;;1.50;99.90;;;;;;4931378;29;20087;-65
2023/01/21 09:48:41;;;;;;;52.03;19.83;;;1.40;99.90;;;;;;4913834;29;20087;-64
2023/01/21 09:51:37;;;;;;;53.90;20.25;;;1.40;99.90;;;;;;4931066;29;20087;-65
2023/01/21 09:54:27;;;;;;;52.08;19.60;;;1.30;99.90;;;;;;4930642;29;20043;-65
2023/01/21 09:57:14;;;;;;;56.97;20.15;;;1.20;99.90;;;;;;4928354;29;20146;-65
2023/01/21 09:59:58;;;;;;;52.10;19.92;;;1.10;99.90;;;;;;4905459;29;20584;-65
2023/01/21 10:02:36;;;;;;;43.40;18.30;;;1.10;99.90;;;;;;4931471;29;20127;-65
2023/01/21 10:05:23;;;;;;;46.03;18.95;;;1.10;99.90;;;;;;4930690;29;20078;-65
2023/01/21 10:07:54;;;;;;;50.05;18.15;;;1.00;99.90;;;;;;4927518;29;20102;-65
2023/01/21 10:10:39;;;;;;;41.70;17.27;;;1.00;99.90;;;;;;4931725;29;20135;-65
2023/01/21 10:13:23;;;;;;;43.60;18.33;;;1.00;99.90;;;;;;4931106;29;20043;-65
2023/01/21 10:16:08;;;;;;;43.25;18.63;;;0.90;99.90;;;;;;4931525;29;20126;-65
2023/01/21 10:18:37;;;;;;;40.55;17.45;;;1.00;99.90;;;;;;4932379;29;20055;-81
2023/01/21 10:21:47;;;;;;;45.22;18.55;;;1.00;99.90;;;;;;4933712;29;20533;-65
2023/01/21 10:24:24;;;;;;;39.45;16.27;;;1.20;99.90;;;;;;4931732;29;20410;-65
2023/01/21 10:26:52;;;;;;;43.08;18.25;;;1.30;99.90;;;;;;4930571;29;20043;-65
2023/01/21 10:29:22;;;;;;;41.20;18.42;;;1.50;99.90;;;;;;4931534;29;20515;-63
2023/01/21 10:32:05;;;;;;;41.67;18.02;;;1.70;99.90;;;;;;4930260;29;20048;-62
2023/01/21 10:34:37;;;;;;;31.00;14.05;;;2.00;99.90;;;;;;4930583;29;20130;-63
2023/01/21 10:37:25;;;;;;;27.05;12.75;;;2.20;99.90;;;;;;4913482;29;20131;-63
2023/01/21 10:40:08;;;;;;;23.95;12.13;;;2.30;99.90;;;;;;4926790;29;20065;-63
2023/01/21 10:42:48;;;;;;;18.63;7.43;;;2.40;99.90;;;;;;4928073;29;20052;-63
2023/01/21 10:45:42;;;;;;;12.07;6.78;;;2.50;99.90;;;;;;4929631;29;20054;-63
2023/01/21 10:48:36;;;;;;;11.68;6.97;;;2.60;99.90;;;;;;4928703;29;20050;-63
2023/01/21 10:51:20;;;;;;;11.50;7.10;;;2.80;99.90;;;;;;4901355;29;20091;-62
2023/01/21 10:54:14;;;;;;;10.35;5.85;;;2.90;99.90;;;;;;4927709;29;20051;-63
2023/01/21 10:57:13;;;;;;;8.77;6.03;;;2.90;99.90;;;;;;4928758;29;20059;-62
2023/01/21 10:59:41;;;;;;;8.75;6.05;;;2.90;99.90;;;;;;4927775;29;20048;-62
2023/01/21 11:02:25;;;;;;;12.25;7.22;;;2.80;99.90;;;;;;4916015;29;20091;-62
2023/01/21 11:04:52;;;;;;;15.38;6.80;;;2.80;99.90;;;;;;4929666;29;20048;-62
2023/01/21 11:07:20;;;;;;;14.30;6.90;;;2.70;99.90;;;;;;4933043;29;20107;-62
2023/01/21 11:09:47;;;;;;;11.95;6.55;;;2.70;99.90;;;;;;4929682;29;20119;-62
2023/01/21 11:12:17;;;;;;;12.40;6.57;;;2.80;99.90;;;;;;4912684;29;20047;-62
2023/01/21 11:15:16;;;;;;;10.07;6.35;;;2.80;99.90;;;;;;4929677;29;20126;-80
2023/01/21 11:17:45;;;;;;;8.52;5.43;;;2.80;99.90;;;;;;4922689;29;20051;-78
2023/01/21 11:20:28;;;;;;;7.18;5.13;;;2.80;99.90;;;;;;4931523;29;20421;-62
2023/01/21 11:22:54;;;;;;;9.77;3.50;;;2.90;99.90;;;;;;4928912;29;20051;-62
2023/01/21 11:25:35;;;;;;;5.40;4.30;;;2.90;99.90;;;;;;4912919;29;20462;-62
2023/01/21 11:28:02;;;;;;;7.20;3.97;;;3.00;99.90;;;;;;4927604;29;20055;-62
2023/01/21 11:30:38;;;;;;;5.18;4.07;;;3.10;99.90;;;;;;4928210;29;20039;-62
2023/01/21 11:33:21;;;;;;;5.75;3.97;;;3.20;99.90;;;;;;4907405;29;20047;-62
2023/01/21 11:35:48;;;;;;;4.20;3.80;;;3.30;99.90;;;;;;4928341;29;20048;-62
2023/01/21 11:38:25;;;;;;;6.50;3.88;;;3.40;99.90;;;;;;4928364;29;20106;-62
2023/01/21 11:41:21;;;;;;;4.38;3.95;;;3.40;99.90;;;;;;4928411;29;20478;-62
2023/01/21 11:43:53;;;;;;;5.07;4.40;;;3.40;99.90;;;;;;4916228;29;20126;-62
2023/01/21 11:46:29;;;;;;;5.05;4.47;;;3.40;99.90;;;;;;4929068;29;20052;-62
2023/01/21 11:49:05;;;;;;;9.93;4.88;;;3.50;99.90;;;;;;4928370;29;20036;-62
2023/01/21 11:51:35;;;;;;;4.85;4.43;;;3.50;99.90;;;;;;4930083;29;20055;-62
2023/01/21 11:54:07;;;;;;;4.78;4.35;;;3.60;99.90;;;;;;4928153;29;20043;-62
2023/01/21 11:56:34;;;;;;;5.53;4.43;;;3.50;99.90;;;;;;4924634;29;20063;-62
2023/01/21 11:59:09;;;;;;;4.25;3.70;;;3.50;99.90;;;;;;4928234;29;20048;-62
2023/01/21 12:01:34;;;;;;;5.15;3.28;;;3.50;99.90;;;;;;4927936;29;20135;-62
2023/01/21 12:04:00;;;;;;;4.97;3.13;;;3.50;99.90;;;;;;4903868;29;20130;-62
2023/01/21 12:06:30;;;;;;;4.47;2.72;;;3.50;99.90;;;;;;4928351;29;20055;-61
2023/01/21 12:09:01;;;;;;;3.33;2.30;;;3.50;99.90;;;;;;4895761;29;20048;-62
2023/01/21 12:11:29;;;;;;;2.08;1.95;;;3.40;99.90;;;;;;4930130;29;20090;-62
2023/01/21 12:14:24;;;;;;;3.10;2.30;;;3.30;99.90;;;;;;4929037;29;20090;-62
2023/01/21 12:17:09;;;;;;;3.00;2.70;;;3.30;99.90;;;;;;4920208;29;20524;-62
2023/01/21 12:20:13;;;;;;;3.60;2.83;;;3.10;99.90;;;;;;4928694;29;20040;-79
2023/01/21 12:23:05;;;;;;;3.38;2.97;;;3.20;99.90;;;;;;4899866;29;20414;-62
2023/01/21 12:25:49;;;;;;;3.53;3.00;;;3.10;99.90;;;;;;4930285;29;20130;-62
2023/01/21 12:28:37;;;;;;;3.40;3.13;;;3.10;99.90;;;;;;4930323;29;20052;-62
2023/01/21 12:31:36;;;;;;;3.80;3.22;;;3.00;99.90;;;;;;4932224;29;20090;-62
2023/01/21 12:34:38;;;;;;;3.60;3.30;;;3.10;99.90;;;;;;4933207;29;20126;-62
2023/01/21 12:37:17;;;;;;;2.83;2.63;;;3.20;99.90;;;;;;4932073;29;20048;-62
2023/01/21 12:39:43;;;;;;;5.00;3.03;;;3.40;99.90;;;;;;4932308;29;20068;-62
2023/01/21 12:42:25;;;;;;;3.28;2.78;;;3.50;99.90;;;;;;4931695;29;20055;-62
2023/01/21 12:45:26;;;;;;;3.78;2.47;;;3.70;99.90;;;;;;4932137;29;20143;-62
2023/01/21 12:47:58;;;;;;;4.28;2.38;;;3.80;99.90;;;;;;4922453;29;20510;-62
2023/01/21 12:50:38;;;;;;;1.90;1.80;;;3.90;99.90;;;;;;4931198;29;20111;-62
2023/01/21 12:53:12;;;;;;;2.10;1.90;;;3.90;99.90;;;;;;4932435;29;20510;-62
2023/01/21 12:56:01;;;;;;;2.00;1.90;;;4.00;99.90;;;;;;4932957;29;20131;-62
2023/01/21 12:58:35;;;;;;;1.73;1.60;;;4.10;99.90;;;;;;4918488;29;20138;-62